createdAt,value
2023-02-26T00:02:16.671Z,4.85
2023-02-26T00:05:21.233Z,5.28
2023-02-26T00:08:24.206Z,7.65
2023-02-26T00:11:27.708Z,6.15
2023-02-26T00:14:31.127Z,5.85
2023-02-26T00:17:42.914Z,7.03
2023-02-26T00:20:47.983Z,6.18
2023-02-26T00:23:51.347Z,5.00
2023-02-26T00:26:55.408Z,6.82
2023-02-26T00:29:58.916Z,6.43
2023-02-26T00:33:02.389Z,5.97
2023-02-26T00:36:21.786Z,5.03
2023-02-26T00:39:38.655Z,4.95
2023-02-26T00:42:42.292Z,6.30
2023-02-26T00:45:52.791Z,4.90
2023-02-26T00:49:03.936Z,6.13
2023-02-26T00:52:20.117Z,5.03
2023-02-26T00:55:23.341Z,6.80
2023-02-26T00:58:26.295Z,5.70
2023-02-26T01:01:29.287Z,3.65
2023-02-26T01:04:32.912Z,5.72
2023-02-26T01:07:43.233Z,4.97
2023-02-26T01:10:46.697Z,4.55
2023-02-26T01:13:50.381Z,4.28
2023-02-26T01:16:58.748Z,5.03
2023-02-26T01:20:05.526Z,3.78
2023-02-26T01:23:13.434Z,4.28
2023-02-26T01:26:22.509Z,4.18
2023-02-26T01:29:26.065Z,6.90
2023-02-26T01:32:36.874Z,4.82
2023-02-26T01:35:44.933Z,4.97
2023-02-26T01:38:59.410Z,3.95
2023-02-26T01:42:10.577Z,5.63
2023-02-26T01:45:17.591Z,5.38
2023-02-26T01:48:36.014Z,2.97
2023-02-26T01:51:47.765Z,4.25
2023-02-26T01:54:53.455Z,6.97
2023-02-26T01:58:00.105Z,4.90
2023-02-26T02:01:03.669Z,4.18
2023-02-26T02:04:11.223Z,4.15
2023-02-26T02:07:14.939Z,5.13
2023-02-26T02:10:19.859Z,3.40
2023-02-26T02:13:36.569Z,3.45
2023-02-26T02:16:49.089Z,3.83
2023-02-26T02:20:12.364Z,4.55
2023-02-26T02:23:21.355Z,4.35
2023-02-26T02:27:00.138Z,4.65
2023-02-26T02:30:34.242Z,3.60
2023-02-26T02:33:46.195Z,2.78
2023-02-26T02:36:54.995Z,3.45
2023-02-26T02:40:02.595Z,4.65
2023-02-26T02:43:10.482Z,3.72
2023-02-26T02:46:19.524Z,3.80
2023-02-26T02:49:30.330Z,4.68
2023-02-26T02:52:38.930Z,3.90
2023-02-26T02:55:47.420Z,2.97
2023-02-26T02:58:55.650Z,3.28
2023-02-26T03:02:07.646Z,3.38
2023-02-26T03:05:12.143Z,6.25
2023-02-26T03:08:18.720Z,4.10
2023-02-26T03:11:22.858Z,3.40
2023-02-26T03:14:26.526Z,3.05
2023-02-26T03:17:34.828Z,2.40
2023-02-26T03:20:46.071Z,3.25
2023-02-26T03:23:56.627Z,3.67
2023-02-26T03:27:01.840Z,3.58
2023-02-26T03:30:09.141Z,3.10
2023-02-26T03:33:24.256Z,4.65
2023-02-26T03:36:33.774Z,3.20
2023-02-26T03:39:59.280Z,2.58
2023-02-26T03:43:07.447Z,2.95
2023-02-26T03:46:16.454Z,2.55
2023-02-26T03:49:27.108Z,3.40
2023-02-26T03:52:35.527Z,4.57
2023-02-26T03:56:09.453Z,2.78
2023-02-26T03:59:38.801Z,3.00
2023-02-26T04:03:17.729Z,2.75
2023-02-26T04:06:21.365Z,3.50
2023-02-26T04:09:26.569Z,2.58
2023-02-26T04:12:30.358Z,2.97
2023-02-26T04:15:34.125Z,3.72
2023-02-26T04:18:37.127Z,2.90
2023-02-26T04:21:41.620Z,2.53
2023-02-26T04:24:46.032Z,2.22
2023-02-26T04:27:51.315Z,1.77
2023-02-26T04:30:55.097Z,3.17
2023-02-26T04:33:58.400Z,2.78
2023-02-26T04:37:01.429Z,2.80
2023-02-26T04:40:06.955Z,1.90
2023-02-26T04:43:10.388Z,2.75
2023-02-26T04:46:21.263Z,2.95
2023-02-26T04:49:24.439Z,1.70
2023-02-26T04:52:27.746Z,2.88
2023-02-26T04:55:32.270Z,1.95
2023-02-26T04:58:35.401Z,1.92
2023-02-26T05:01:44.054Z,2.70
2023-02-26T05:04:47.152Z,2.80
2023-02-26T05:07:50.154Z,2.05
2023-02-26T05:10:54.956Z,2.00
2023-02-26T05:13:58.065Z,2.22
2023-02-26T05:17:01.065Z,2.15
2023-02-26T05:20:04.856Z,2.63
2023-02-26T05:23:08.248Z,2.47
2023-02-26T05:26:12.679Z,2.97
2023-02-26T05:29:15.636Z,2.78
2023-02-26T05:32:20.616Z,2.35
2023-02-26T05:35:23.777Z,2.60
2023-02-26T05:38:26.849Z,1.98
2023-02-26T05:41:31.486Z,3.50
2023-02-26T05:44:35.390Z,2.45
2023-02-26T05:47:38.483Z,1.88
2023-02-26T05:50:41.408Z,2.42
2023-02-26T05:53:44.481Z,2.38
2023-02-26T05:56:49.025Z,3.28
2023-02-26T05:59:51.997Z,2.65
2023-02-26T06:02:55.163Z,2.22
2023-02-26T06:05:58.117Z,2.00
2023-02-26T06:09:01.353Z,1.98
2023-02-26T06:12:06.712Z,1.85
2023-02-26T06:15:11.366Z,2.47
2023-02-26T06:18:14.442Z,3.17
2023-02-26T06:21:17.729Z,2.10
2023-02-26T06:24:20.882Z,2.22
2023-02-26T06:27:25.344Z,1.75
2023-02-26T06:30:28.455Z,1.55
2023-02-26T06:33:31.481Z,1.50
2023-02-26T06:36:34.408Z,1.83
2023-02-26T06:39:37.480Z,5.63
2023-02-26T06:42:42.004Z,2.22
2023-02-26T06:45:45.127Z,2.78
2023-02-26T06:48:48.157Z,1.95
2023-02-26T06:51:51.214Z,1.80
2023-02-26T06:54:54.232Z,1.40
2023-02-26T06:57:59.476Z,3.22
2023-02-26T07:01:04.362Z,2.20
2023-02-26T07:04:07.396Z,1.50
2023-02-26T07:07:11.445Z,2.13
2023-02-26T07:10:14.402Z,2.17
2023-02-26T07:13:19.344Z,1.70
2023-02-26T07:16:22.849Z,1.38
2023-02-26T07:19:25.821Z,1.50
2023-02-26T07:22:28.801Z,1.40
2023-02-26T07:25:31.762Z,1.45
2023-02-26T07:28:36.185Z,1.85
2023-02-26T07:31:39.727Z,2.28
2023-02-26T07:34:42.767Z,2.00
2023-02-26T07:37:45.816Z,1.67
2023-02-26T07:40:48.841Z,1.63
2023-02-26T07:43:53.294Z,1.58
2023-02-26T07:46:56.240Z,1.77
2023-02-26T07:49:59.336Z,1.67
2023-02-26T07:53:02.359Z,2.25
2023-02-26T07:56:05.847Z,3.17
2023-02-26T07:59:10.821Z,2.05
2023-02-26T08:02:14.540Z,1.60
2023-02-26T08:05:17.667Z,1.75
2023-02-26T08:08:20.738Z,1.30
2023-02-26T08:11:23.900Z,1.65
2023-02-26T08:14:28.263Z,2.55
2023-02-26T08:17:31.240Z,1.23
2023-02-26T08:20:34.199Z,2.15
2023-02-26T08:23:37.200Z,1.48
2023-02-26T08:26:40.541Z,2.58
2023-02-26T08:29:46.865Z,2.63
2023-02-26T08:32:49.940Z,2.55
2023-02-26T08:35:53.731Z,2.55
2023-02-26T08:38:56.742Z,4.22
2023-02-26T08:41:59.777Z,4.20
2023-02-26T08:45:05.007Z,2.55
2023-02-26T08:48:10.473Z,4.70
2023-02-26T08:51:13.818Z,2.67
2023-02-26T08:54:17.388Z,6.63
2023-02-26T08:57:20.448Z,3.08
2023-02-26T09:00:25.215Z,5.43
2023-02-26T09:03:28.310Z,4.85
2023-02-26T09:06:32.583Z,4.95
2023-02-26T09:09:36.017Z,7.45
2023-02-26T09:12:39.087Z,3.17
2023-02-26T09:15:43.797Z,3.50
2023-02-26T09:18:47.272Z,3.22
2023-02-26T09:21:50.729Z,5.13
2023-02-26T09:24:53.838Z,2.92
2023-02-26T09:27:58.652Z,4.25
2023-02-26T09:31:03.314Z,6.68
2023-02-26T09:34:06.786Z,12.80
2023-02-26T09:37:10.956Z,11.25
2023-02-26T09:40:25.719Z,7.90
2023-02-26T09:43:58.592Z,6.03
2023-02-26T09:47:07.681Z,6.75
2023-02-26T09:50:18.561Z,7.40
2023-02-26T09:53:25.358Z,4.20
2023-02-26T09:56:30.940Z,3.85
2023-02-26T09:59:35.180Z,3.10
2023-02-26T10:02:48.716Z,2.50
2023-02-26T10:06:11.298Z,8.35
2023-02-26T10:09:26.175Z,7.00
2023-02-26T10:12:32.346Z,3.10
2023-02-26T10:15:40.740Z,9.05
2023-02-26T10:18:49.320Z,11.10
2023-02-26T10:21:55.853Z,6.90
2023-02-26T10:25:04.389Z,7.20
2023-02-26T10:28:22.215Z,10.43
2023-02-26T10:31:32.210Z,6.50
2023-02-26T10:34:43.299Z,5.55
2023-02-26T10:37:50.440Z,4.15
2023-02-26T10:41:01.766Z,6.63
2023-02-26T10:44:15.060Z,9.10
2023-02-26T10:47:29.892Z,8.40
2023-02-26T10:50:34.550Z,7.63
2023-02-26T10:53:40.688Z,8.05
2023-02-26T10:56:43.793Z,7.03
2023-02-26T10:59:46.825Z,6.82
2023-02-26T11:02:53.383Z,4.53
2023-02-26T11:05:57.811Z,5.50
2023-02-26T11:09:02.761Z,5.18
2023-02-26T11:12:14.005Z,7.38
2023-02-26T11:15:20.112Z,8.63
2023-02-26T11:18:28.151Z,11.10
2023-02-26T11:21:39.300Z,11.55
2023-02-26T11:24:46.894Z,14.10
2023-02-26T11:27:54.893Z,19.65
2023-02-26T11:30:57.998Z,20.65
2023-02-26T11:34:04.975Z,15.05
2023-02-26T11:37:09.562Z,14.00
2023-02-26T11:40:18.139Z,16.98
2023-02-26T11:43:23.690Z,15.23
2023-02-26T11:46:27.144Z,19.92
2023-02-26T11:49:30.694Z,12.27
2023-02-26T11:52:41.184Z,10.70
2023-02-26T11:55:48.145Z,13.90
2023-02-26T11:58:55.254Z,13.45
2023-02-26T12:02:04.105Z,13.32
2023-02-26T12:05:08.257Z,16.83
2023-02-26T12:08:19.525Z,13.98
2023-02-26T12:11:46.408Z,14.88
2023-02-26T12:15:01.391Z,13.43
2023-02-26T12:18:24.549Z,11.48
2023-02-26T12:21:40.587Z,10.52
2023-02-26T12:25:02.176Z,12.48
2023-02-26T12:28:30.369Z,13.90
2023-02-26T12:31:57.200Z,20.20
2023-02-26T12:35:18.810Z,19.30
2023-02-26T12:38:29.722Z,19.33
2023-02-26T12:41:57.508Z,19.55
2023-02-26T12:45:21.920Z,18.77
2023-02-26T12:48:53.072Z,19.80
2023-02-26T12:52:20.055Z,23.08
2023-02-26T12:55:35.252Z,21.30
2023-02-26T12:59:01.958Z,14.18
2023-02-26T13:02:24.337Z,13.95
2023-02-26T13:05:43.864Z,19.45
2023-02-26T13:08:52.167Z,11.95
2023-02-26T13:12:09.708Z,12.45
2023-02-26T13:15:43.243Z,15.60
2023-02-26T13:18:55.020Z,11.88
2023-02-26T13:22:01.457Z,17.23
2023-02-26T13:25:07.729Z,11.45
2023-02-26T13:28:22.689Z,11.40
2023-02-26T13:31:33.016Z,12.60
2023-02-26T13:34:42.855Z,14.20
2023-02-26T13:37:49.339Z,10.48
2023-02-26T13:41:04.076Z,14.20
2023-02-26T13:44:22.052Z,11.13
2023-02-26T13:48:01.929Z,10.50
2023-02-26T13:51:10.755Z,9.05
2023-02-26T13:54:36.081Z,9.50
2023-02-26T13:57:48.782Z,8.48
2023-02-26T14:01:00.303Z,9.90
2023-02-26T14:04:26.078Z,10.82
2023-02-26T14:07:53.641Z,8.70
2023-02-26T14:11:03.611Z,8.10
2023-02-26T14:14:31.505Z,7.70
2023-02-26T14:17:40.651Z,11.18
2023-02-26T14:20:46.584Z,7.32
2023-02-26T14:23:50.596Z,9.63
2023-02-26T14:27:10.504Z,7.32
2023-02-26T14:30:20.498Z,8.95
2023-02-26T14:33:30.170Z,10.98
2023-02-26T14:36:40.909Z,9.55
2023-02-26T14:39:49.705Z,9.60
2023-02-26T14:42:55.972Z,9.27
2023-02-26T14:45:59.026Z,6.93
2023-02-26T14:49:02.441Z,10.27
2023-02-26T14:52:41.589Z,8.88
2023-02-26T14:56:00.406Z,9.98
2023-02-26T14:59:35.008Z,10.35
2023-02-26T15:02:50.640Z,6.85
2023-02-26T15:06:12.458Z,7.28
2023-02-26T15:09:22.645Z,12.20
2023-02-26T15:12:42.794Z,9.70
2023-02-26T15:15:54.388Z,8.20
2023-02-26T15:19:22.461Z,7.55
2023-02-26T15:22:49.173Z,8.30
2023-02-26T15:25:52.818Z,8.05
2023-02-26T15:28:58.712Z,8.40
2023-02-26T15:32:08.225Z,9.27
2023-02-26T15:35:19.209Z,10.15
2023-02-26T15:38:23.080Z,8.43
2023-02-26T15:41:28.416Z,7.95
2023-02-26T15:44:35.098Z,8.18
2023-02-26T15:47:40.870Z,7.82
2023-02-26T15:50:46.949Z,9.45
2023-02-26T15:53:52.266Z,7.15
2023-02-26T15:56:55.416Z,6.85
2023-02-26T16:00:10.350Z,8.32
2023-02-26T16:03:16.005Z,7.63
2023-02-26T16:06:21.882Z,14.02
2023-02-26T16:09:30.099Z,7.45
2023-02-26T16:12:37.928Z,8.10
2023-02-26T16:15:43.740Z,9.10
2023-02-26T16:18:47.779Z,21.15
2023-02-26T16:21:53.579Z,12.73
2023-02-26T16:25:01.039Z,14.35
2023-02-26T16:28:06.743Z,11.98
2023-02-26T16:31:18.550Z,19.75
2023-02-26T16:34:30.224Z,16.55
2023-02-26T16:37:36.152Z,15.88
2023-02-26T16:40:44.395Z,12.57
2023-02-26T16:43:54.384Z,15.57
2023-02-26T16:47:00.016Z,19.17
2023-02-26T16:50:03.843Z,15.85
2023-02-26T16:53:09.765Z,12.93
2023-02-26T16:56:16.795Z,10.57
2023-02-26T16:59:23.177Z,13.90
2023-02-26T17:02:30.841Z,11.52
2023-02-26T17:05:38.428Z,12.05
2023-02-26T17:08:49.134Z,9.25
2023-02-26T17:11:52.685Z,18.25
2023-02-26T17:14:57.892Z,12.23
2023-02-26T17:18:03.054Z,16.40
2023-02-26T17:21:08.042Z,11.48
2023-02-26T17:24:17.906Z,11.55
2023-02-26T17:27:28.360Z,15.68
2023-02-26T17:30:33.609Z,12.32
2023-02-26T17:33:41.469Z,11.13
2023-02-26T17:36:44.634Z,19.60
2023-02-26T17:39:47.986Z,11.30
2023-02-26T17:42:51.990Z,15.18
2023-02-26T17:45:54.995Z,9.65
2023-02-26T17:48:59.371Z,14.68
2023-02-26T17:52:02.424Z,9.57
2023-02-26T17:55:05.892Z,11.75
2023-02-26T17:58:14.481Z,12.90
2023-02-26T18:01:17.517Z,13.63
2023-02-26T18:04:22.589Z,8.98
2023-02-26T18:07:26.320Z,9.88
2023-02-26T18:10:29.379Z,19.70
2023-02-26T18:13:32.651Z,14.43
2023-02-26T18:16:40.313Z,11.70
2023-02-26T18:19:46.306Z,12.35
2023-02-26T18:22:50.475Z,11.80
2023-02-26T18:25:56.411Z,15.70
2023-02-26T18:28:59.451Z,15.00
2023-02-26T18:32:03.678Z,11.90
2023-02-26T18:35:08.941Z,14.95
2023-02-26T18:38:12.961Z,14.48
2023-02-26T18:41:15.979Z,18.98
2023-02-26T18:44:18.958Z,16.55
2023-02-26T18:47:23.165Z,16.73
2023-02-26T18:50:27.466Z,15.73
2023-02-26T18:53:30.481Z,13.93
2023-02-26T18:56:33.529Z,25.15
2023-02-26T18:59:36.700Z,28.17
2023-02-26T19:02:39.860Z,32.95
2023-02-26T19:05:44.312Z,40.95
2023-02-26T19:08:47.609Z,38.25
2023-02-26T19:11:50.622Z,30.23
2023-02-26T19:14:53.701Z,21.50
2023-02-26T19:17:56.839Z,22.05
2023-02-26T19:21:02.593Z,18.45
2023-02-26T19:24:06.598Z,22.80
2023-02-26T19:27:10.301Z,23.67
2023-02-26T19:30:13.886Z,23.70
2023-02-26T19:33:20.393Z,21.83
2023-02-26T19:36:25.176Z,30.27
2023-02-26T19:39:28.523Z,21.20
2023-02-26T19:42:31.487Z,23.67
2023-02-26T19:45:34.478Z,20.38
2023-02-26T19:48:37.731Z,23.52
2023-02-26T19:51:43.228Z,18.67
2023-02-26T19:54:46.272Z,21.33
2023-02-26T19:57:49.388Z,23.48
2023-02-26T20:00:52.616Z,18.58
2023-02-26T20:03:56.096Z,18.65
2023-02-26T20:07:00.496Z,20.85
2023-02-26T20:10:03.568Z,19.08
2023-02-26T20:13:06.633Z,19.90
2023-02-26T20:16:11.285Z,18.65
2023-02-26T20:19:14.624Z,20.05
2023-02-26T20:22:21.229Z,22.73
2023-02-26T20:25:24.650Z,21.42
2023-02-26T20:28:28.264Z,18.80
2023-02-26T20:31:31.697Z,16.45
2023-02-26T20:34:34.689Z,22.35
2023-02-26T20:37:39.931Z,20.23
2023-02-26T20:40:42.979Z,21.02
2023-02-26T20:43:45.984Z,19.30
2023-02-26T20:46:49.070Z,16.73
2023-02-26T20:49:52.090Z,21.23
2023-02-26T20:52:56.476Z,19.67
2023-02-26T20:56:00.111Z,25.35
2023-02-26T20:59:03.228Z,17.58
2023-02-26T21:02:06.160Z,22.83
2023-02-26T21:05:10.508Z,18.10
2023-02-26T21:08:15.269Z,16.55
2023-02-26T21:11:18.237Z,15.35
2023-02-26T21:14:21.335Z,18.73
2023-02-26T21:17:25.094Z,19.25
2023-02-26T21:20:28.123Z,15.48
2023-02-26T21:23:32.508Z,18.35
2023-02-26T21:26:35.592Z,18.23
2023-02-26T21:29:38.657Z,17.33
2023-02-26T21:32:42.737Z,16.83
2023-02-26T21:35:45.770Z,16.30
2023-02-26T21:38:50.113Z,19.05
2023-02-26T21:41:53.077Z,18.20
2023-02-26T21:44:56.041Z,17.00
2023-02-26T21:47:59.059Z,15.27
2023-02-26T21:51:02.285Z,16.08
2023-02-26T21:54:06.914Z,17.13
2023-02-26T21:57:10.071Z,16.15
2023-02-26T22:00:14.385Z,16.23
2023-02-26T22:03:17.521Z,15.35
2023-02-26T22:06:20.508Z,16.05
2023-02-26T22:09:24.874Z,15.25
2023-02-26T22:12:27.822Z,15.48
2023-02-26T22:15:30.945Z,15.18
2023-02-26T22:18:33.979Z,17.60
2023-02-26T22:21:37.406Z,15.27
2023-02-26T22:24:42.065Z,15.63
2023-02-26T22:27:45.116Z,17.75
2023-02-26T22:30:48.201Z,15.05
2023-02-26T22:33:51.221Z,15.15
2023-02-26T22:36:54.377Z,15.73
2023-02-26T22:39:58.729Z,15.98
2023-02-26T22:43:01.772Z,14.40
2023-02-26T22:46:05.078Z,14.98
2023-02-26T22:49:08.082Z,17.98
2023-02-26T22:52:11.761Z,16.23
2023-02-26T22:55:16.545Z,16.42
2023-02-26T22:58:19.586Z,14.77
2023-02-26T23:01:22.606Z,16.38
2023-02-26T23:04:25.644Z,14.70
2023-02-26T23:07:28.747Z,14.13
2023-02-26T23:10:34.124Z,14.57
2023-02-26T23:13:38.100Z,14.63
2023-02-26T23:16:41.573Z,17.45
2023-02-26T23:19:44.820Z,20.23
2023-02-26T23:22:47.906Z,13.88
2023-02-26T23:25:52.729Z,14.57
2023-02-26T23:28:56.046Z,15.77
2023-02-26T23:31:59.081Z,14.93
2023-02-26T23:35:02.199Z,14.73
2023-02-26T23:38:06.134Z,14.77
2023-02-26T23:41:10.971Z,14.82
2023-02-26T23:44:13.938Z,13.88
2023-02-26T23:47:16.995Z,14.18
2023-02-26T23:50:20.145Z,16.20
2023-02-26T23:53:23.566Z,16.80
2023-02-26T23:56:28.393Z,14.57
2023-02-26T23:59:31.528Z,13.40
